Time;durP1;ratioP1;P1;durP2;ratioP2;P2;SDS_P1;SDS_P2;PMS_P1;PMS_P2;Temp;Humidity;BMP_temperature;BMP_pressure;BME280_temperature;BME280_humidity;BME280_pressure;Samples;Min_cycle;Max_cycle;Signal;HPM_P1;HPM_P2
2022/11/21 05:54:43;;;;;;;59.80;29.83;;;;;;;;;;5249346;23;20058;-60
2022/11/21 05:57:09;;;;;;;58.42;29.55;;;;;;;;;;5013022;28;20034;-58
2022/11/21 05:59:35;;;;;;;54.67;28.63;;;;;;;;;;5013058;28;20076;-64
2022/11/21 06:04:46;;;;;;;54.50;27.55;;;;;;;;;;5010367;28;20059;-70
2022/11/21 06:07:12;;;;;;;55.88;27.45;;;;;;;;;;4993039;28;20026;-60
2022/11/21 06:09:38;;;;;;;53.40;28.63;;;;;;;;;;4993308;28;20037;-61
2022/11/21 06:12:04;;;;;;;55.72;29.15;;;;;;;;;;4975052;28;20058;-62
2022/11/21 06:14:30;;;;;;;51.63;26.92;;;;;;;;;;4993305;28;20023;-62
2022/11/21 06:16:56;;;;;;;55.17;28.42;;;;;;;;;;4993020;28;20482;-69
2022/11/21 06:19:22;;;;;;;57.20;29.30;;;;;;;;;;5005293;28;20033;-62
2022/11/21 06:21:48;;;;;;;51.75;27.65;;;;;;;;;;5012733;28;20044;-61
2022/11/21 06:24:14;;;;;;;56.63;28.55;;;;;;;;;;5012216;28;20030;-60
2022/11/21 06:26:40;;;;;;;54.80;29.67;;;;;;;;;;4995338;28;20029;-68
2022/11/21 06:29:06;;;;;;;58.63;29.98;;;;;;;;;;5012407;28;20385;-60
2022/11/21 06:31:32;;;;;;;54.90;28.42;;;;;;;;;;5011416;28;20045;-64
2022/11/21 06:33:58;;;;;;;56.05;29.55;;;;;;;;;;5012276;28;20105;-60
2022/11/21 06:36:25;;;;;;;52.60;27.50;;;;;;;;;;5012583;28;20038;-61
2022/11/21 06:38:52;;;;;;;57.30;29.70;;;;;;;;;;5012445;28;20022;-62
2022/11/21 06:41:20;;;;;;;54.90;29.50;;;;;;;;;;5012392;28;20124;-68
2022/11/21 06:43:46;;;;;;;56.33;28.33;;;;;;;;;;5011955;28;20109;-62
2022/11/21 06:46:12;;;;;;;52.97;27.83;;;;;;;;;;5012361;28;20037;-62
2022/11/21 06:48:39;;;;;;;52.83;28.88;;;;;;;;;;5012348;28;20041;-61
2022/11/21 06:51:24;;;;;;;54.13;29.70;;;;;;;;;;5011872;28;20038;-61
2022/11/21 06:53:57;;;;;;;56.80;30.40;;;;;;;;;;5006729;28;20804;-61
2022/11/21 06:56:24;;;;;;;52.42;28.60;;;;;;;;;;4992240;28;20034;-65
2022/11/21 06:58:50;;;;;;;54.70;29.20;;;;;;;;;;4992063;28;20073;-60
2022/11/21 07:01:17;;;;;;;51.20;28.52;;;;;;;;;;4992409;28;20025;-61
2022/11/21 07:03:43;;;;;;;52.50;27.88;;;;;;;;;;4992145;28;20030;-60
2022/11/21 07:06:09;;;;;;;49.35;27.10;;;;;;;;;;4992105;28;20053;-60
2022/11/21 07:08:36;;;;;;;50.35;26.80;;;;;;;;;;4991808;28;20121;-60
2022/11/21 07:11:06;;;;;;;51.80;27.85;;;;;;;;;;4991696;28;20154;-61
2022/11/21 07:13:32;;;;;;;51.67;26.55;;;;;;;;;;4991758;28;20034;-61
2022/11/21 07:16:02;;;;;;;53.70;26.23;;;;;;;;;;4991909;28;20113;-60
2022/11/21 07:18:29;;;;;;;54.88;27.83;;;;;;;;;;4989735;28;20037;-61
2022/11/21 07:20:58;;;;;;;49.78;26.42;;;;;;;;;;4989763;28;20069;-60
2022/11/21 07:23:24;;;;;;;47.63;25.25;;;;;;;;;;4977844;28;20061;-60
2022/11/21 07:25:51;;;;;;;48.10;25.35;;;;;;;;;;4974313;28;20027;-60
2022/11/21 07:28:17;;;;;;;47.63;26.52;;;;;;;;;;4971361;28;20104;-68
2022/11/21 07:30:43;;;;;;;43.05;23.52;;;;;;;;;;4972966;28;20161;-59
2022/11/21 07:33:09;;;;;;;47.55;25.95;;;;;;;;;;4974049;28;20561;-60
2022/11/21 07:35:35;;;;;;;44.35;24.15;;;;;;;;;;4970232;28;20034;-59
2022/11/21 07:38:02;;;;;;;42.55;24.20;;;;;;;;;;4973925;28;20101;-59
2022/11/21 07:40:28;;;;;;;47.30;24.25;;;;;;;;;;4972838;28;20042;-59
2022/11/21 07:42:54;;;;;;;46.67;23.90;;;;;;;;;;4971104;28;20579;-59
2022/11/21 07:45:20;;;;;;;43.97;23.92;;;;;;;;;;4971853;28;20042;-59
2022/11/21 07:47:46;;;;;;;47.75;24.00;;;;;;;;;;4965875;28;20023;-59
2022/11/21 07:50:12;;;;;;;45.88;25.38;;;;;;;;;;4974731;28;20023;-60
2022/11/21 07:52:39;;;;;;;44.85;24.83;;;;;;;;;;4967616;28;20490;-67
2022/11/21 07:55:06;;;;;;;45.78;25.17;;;;;;;;;;4989713;28;20121;-59
2022/11/21 07:57:32;;;;;;;44.33;23.52;;;;;;;;;;4990051;28;20042;-66
2022/11/21 07:59:58;;;;;;;43.35;24.13;;;;;;;;;;4980827;28;20029;-60
2022/11/21 08:02:26;;;;;;;41.42;22.35;;;;;;;;;;4971076;28;20035;-59
2022/11/21 08:04:52;;;;;;;44.08;23.95;;;;;;;;;;4971450;28;20113;-70
2022/11/21 08:07:19;;;;;;;41.35;22.60;;;;;;;;;;4970749;28;20026;-60
2022/11/21 08:09:45;;;;;;;46.97;23.77;;;;;;;;;;4973469;28;20074;-60
2022/11/21 08:12:12;;;;;;;46.50;24.80;;;;;;;;;;4970697;28;20039;-59
2022/11/21 08:14:38;;;;;;;43.28;23.58;;;;;;;;;;4973457;28;20023;-59
2022/11/21 08:17:04;;;;;;;43.65;24.90;;;;;;;;;;4978242;28;20039;-68
2022/11/21 08:19:30;;;;;;;47.53;24.73;;;;;;;;;;4972764;28;20019;-59
2022/11/21 08:21:57;;;;;;;45.75;25.48;;;;;;;;;;4971691;28;20027;-71
2022/11/21 08:24:23;;;;;;;47.10;25.73;;;;;;;;;;4973595;28;20043;-62
2022/11/21 08:26:49;;;;;;;46.55;24.95;;;;;;;;;;4970393;28;20089;-63
2022/11/21 08:29:15;;;;;;;42.40;23.85;;;;;;;;;;4971685;28;20038;-62
2022/11/21 08:31:42;;;;;;;48.80;24.23;;;;;;;;;;4973098;28;20042;-62
2022/11/21 08:34:08;;;;;;;41.42;24.17;;;;;;;;;;4990070;28;20034;-65
2022/11/21 08:36:34;;;;;;;40.65;23.10;;;;;;;;;;4991195;28;20113;-64
2022/11/21 08:39:00;;;;;;;41.92;23.58;;;;;;;;;;4991207;28;20458;-72
2022/11/21 08:44:11;;;;;;;36.85;21.45;;;;;;;;;;4991215;28;20036;-67
2022/11/21 08:46:37;;;;;;;38.95;22.80;;;;;;;;;;4991421;28;20022;-63
2022/11/21 08:49:06;;;;;;;40.30;22.42;;;;;;;;;;4973521;28;20026;-72
2022/11/21 08:51:33;;;;;;;41.60;23.35;;;;;;;;;;4991014;28;20136;-64
2022/11/21 08:53:59;;;;;;;40.00;22.63;;;;;;;;;;4991021;28;20046;-64
2022/11/21 08:56:25;;;;;;;38.92;22.67;;;;;;;;;;4977268;28;20058;-64
2022/11/21 08:58:51;;;;;;;36.92;19.88;;;;;;;;;;4994789;28;20084;-63
2022/11/21 09:01:17;;;;;;;38.25;20.88;;;;;;;;;;4994404;28;20037;-62
2022/11/21 09:03:43;;;;;;;35.78;18.63;;;;;;;;;;4994529;28;20034;-64
2022/11/21 09:06:09;;;;;;;35.38;20.23;;;;;;;;;;4994430;28;20033;-66
2022/11/21 09:08:35;;;;;;;37.75;21.13;;;;;;;;;;4994608;28;20069;-64
2022/11/21 09:11:08;;;;;;;35.47;20.25;;;;;;;;;;4994117;28;20390;-69
2022/11/21 09:13:35;;;;;;;38.33;20.88;;;;;;;;;;4994209;28;20041;-63
2022/11/21 09:18:46;;;;;;;37.40;20.40;;;;;;;;;;4994645;28;20132;-69
2022/11/21 09:21:16;;;;;;;36.33;20.08;;;;;;;;;;4994108;28;20034;-70
2022/11/21 09:23:42;;;;;;;39.47;21.13;;;;;;;;;;4980651;28;20035;-67
2022/11/21 09:26:08;;;;;;;39.25;21.05;;;;;;;;;;4973197;28;20041;-65
2022/11/21 09:28:37;;;;;;;41.65;21.33;;;;;;;;;;4975796;28;20030;-66
2022/11/21 09:31:03;;;;;;;42.90;22.63;;;;;;;;;;4982675;28;20030;-64
2022/11/21 09:33:30;;;;;;;41.25;21.52;;;;;;;;;;4976176;28;20026;-65
2022/11/21 09:35:59;;;;;;;36.83;20.83;;;;;;;;;;4982416;28;20334;-65
2022/11/21 09:38:26;;;;;;;46.28;23.25;;;;;;;;;;4993975;28;20088;-66
2022/11/21 09:40:56;;;;;;;41.03;21.48;;;;;;;;;;4977373;28;20031;-65
2022/11/21 09:44:00;;;;;;;41.50;23.20;;;;;;;;;;4959923;28;20023;-65
2022/11/21 09:46:29;;;;;;;41.03;21.40;;;;;;;;;;4893686;29;20063;-65
2022/11/21 09:48:57;;;;;;;38.50;21.88;;;;;;;;;;4893966;29;20397;-65
2022/11/21 09:51:23;;;;;;;40.38;22.88;;;;;;;;;;4894815;29;20516;-67
2022/11/21 09:53:52;;;;;;;49.78;27.02;;;;;;;;;;4894631;29;20456;-71
2022/11/21 09:56:18;;;;;;;44.35;23.85;;;;;;;;;;4894672;29;20040;-66
2022/11/21 09:58:57;;;;;;;43.33;23.58;;;;;;;;;;4894383;29;20468;-66
2022/11/21 10:01:23;;;;;;;40.38;23.65;;;;;;;;;;4895300;29;20032;-70
2022/11/21 10:03:51;;;;;;;40.58;25.02;;;;;;;;;;4895124;29;20524;-67
2022/11/21 10:06:24;;;;;;;43.67;23.95;;;;;;;;;;4894990;29;20040;-65
2022/11/21 10:09:02;;;;;;;37.33;21.27;;;;;;;;;;4895258;29;20168;-66
2022/11/21 10:14:40;;;;;;;32.30;19.15;;;;;;;;;;4894838;29;20120;-66
2022/11/21 10:17:09;;;;;;;35.20;19.70;;;;;;;;;;4933364;28;20105;-66
2022/11/21 10:19:53;;;;;;;35.75;17.83;;;;;;;;;;4992748;28;20676;-66
2022/11/21 10:22:19;;;;;;;35.15;19.23;;;;;;;;;;4993025;28;20390;-65
2022/11/21 10:24:51;;;;;;;34.25;19.45;;;;;;;;;;4992349;28;20039;-66
2022/11/21 10:27:23;;;;;;;32.97;19.08;;;;;;;;;;4991023;28;20490;-70
2022/11/21 10:29:53;;;;;;;32.70;18.88;;;;;;;;;;4992512;28;20077;-65
2022/11/21 10:32:23;;;;;;;29.35;17.60;;;;;;;;;;4992591;28;20493;-71
2022/11/21 10:34:51;;;;;;;31.05;18.85;;;;;;;;;;4992793;28;20026;-71
2022/11/21 10:37:25;;;;;;;33.13;17.98;;;;;;;;;;4975088;28;20031;-68
2022/11/21 10:39:51;;;;;;;31.58;18.40;;;;;;;;;;4992583;28;20101;-64
2022/11/21 10:42:30;;;;;;;31.67;17.40;;;;;;;;;;4992223;28;20069;-68
2022/11/21 10:45:17;;;;;;;32.65;18.38;;;;;;;;;;4992489;28;20034;-70
2022/11/21 10:47:44;;;;;;;29.33;17.20;;;;;;;;;;4992398;28;20026;-70
2022/11/21 10:50:29;;;;;;;34.10;18.50;;;;;;;;;;4992422;28;20023;-67
2022/11/21 10:54:31;;;;;;;31.98;17.67;;;;;;;;;;4991234;28;20054;-65
2022/11/21 10:56:05;;;;;;;33.40;17.85;;;;;;;;;;4991936;28;20054;-70
2022/11/21 10:58:41;;;;;;;30.40;16.98;;;;;;;;;;4991843;28;20034;-69
2022/11/21 11:01:18;;;;;;;30.48;17.60;;;;;;;;;;4976140;28;20095;-66
2022/11/21 11:03:44;;;;;;;36.13;18.90;;;;;;;;;;4972799;28;20023;-71
2022/11/21 11:06:10;;;;;;;32.55;18.80;;;;;;;;;;4972345;28;20092;-66
2022/11/21 11:08:51;;;;;;;32.78;17.92;;;;;;;;;;4972366;28;20031;-65
2022/11/21 11:11:25;;;;;;;34.17;17.77;;;;;;;;;;4972891;28;20067;-71
2022/11/21 11:13:56;;;;;;;29.27;17.80;;;;;;;;;;4956031;28;20035;-65
2022/11/21 11:16:23;;;;;;;30.23;17.10;;;;;;;;;;4972696;28;20462;-64
2022/11/21 11:19:09;;;;;;;30.10;17.90;;;;;;;;;;4971790;28;20027;-66
2022/11/21 11:21:44;;;;;;;31.48;18.15;;;;;;;;;;4973219;28;20034;-64
2022/11/21 11:24:11;;;;;;;32.00;18.45;;;;;;;;;;4972183;28;20093;-64
2022/11/21 11:26:46;;;;;;;34.45;19.23;;;;;;;;;;4972652;28;20120;-64
2022/11/21 11:29:13;;;;;;;30.77;18.40;;;;;;;;;;4972116;28;20026;-67
2022/11/21 11:31:40;;;;;;;30.75;18.30;;;;;;;;;;4972408;28;20035;-64
2022/11/21 11:34:09;;;;;;;35.33;19.58;;;;;;;;;;4972405;28;20089;-64
2022/11/21 11:36:38;;;;;;;30.65;18.05;;;;;;;;;;4972363;28;20034;-65
2022/11/21 11:39:17;;;;;;;29.52;17.77;;;;;;;;;;4972090;28;20054;-64
2022/11/21 11:47:31;;;;;;;29.60;17.73;;;;;;;;;;4971952;28;20597;-65
2022/11/21 11:50:12;;;;;;;;;;;;;;;;;;4972379;28;20033;-64
2022/11/21 11:52:59;;;;;;;27.25;16.05;;;;;;;;;;4971998;28;20004;-68
2022/11/21 11:55:31;;;;;;;31.05;17.05;;;;;;;;;;4971120;28;20522;-64
2022/11/21 11:57:59;;;;;;;31.45;17.63;;;;;;;;;;4971786;28;20228;-65
2022/11/21 12:00:31;;;;;;;31.08;17.73;;;;;;;;;;4971480;28;20490;-64
2022/11/21 12:03:00;;;;;;;32.58;17.67;;;;;;;;;;4971843;28;20486;-64
2022/11/21 12:05:28;;;;;;;34.03;18.83;;;;;;;;;;4971862;28;20042;-65
2022/11/21 12:08:06;;;;;;;27.95;17.77;;;;;;;;;;4971650;28;20113;-64
2022/11/21 12:12:05;;;;;;;30.70;18.70;;;;;;;;;;4971513;28;20038;-67
2022/11/21 12:13:28;;;;;;;32.55;19.02;;;;;;;;;;4971523;28;20035;-65
2022/11/21 12:15:54;;;;;;;37.75;21.60;;;;;;;;;;4971756;28;20058;-65
2022/11/21 12:18:20;;;;;;;35.25;21.05;;;;;;;;;;4972052;28;20031;-68
2022/11/21 12:20:46;;;;;;;37.85;22.55;;;;;;;;;;4972019;28;20173;-65
2022/11/21 12:23:13;;;;;;;37.22;22.67;;;;;;;;;;4971339;28;20549;-69
2022/11/21 12:25:41;;;;;;;36.47;20.77;;;;;;;;;;4971460;28;20070;-67
2022/11/21 12:28:17;;;;;;;29.70;17.77;;;;;;;;;;4989087;28;20057;-65
2022/11/21 12:30:49;;;;;;;31.27;18.27;;;;;;;;;;4994606;28;20038;-71
2022/11/21 12:33:19;;;;;;;28.27;18.35;;;;;;;;;;4994703;28;20123;-71
2022/11/21 12:35:54;;;;;;;38.15;22.00;;;;;;;;;;4994624;28;20042;-71
2022/11/21 12:38:32;;;;;;;28.85;17.35;;;;;;;;;;4977168;28;20089;-69
2022/11/21 12:44:09;;;;;;;29.60;18.77;;;;;;;;;;4976733;28;20494;-71
2022/11/21 12:46:52;;;;;;;28.50;17.90;;;;;;;;;;4973895;28;20538;-68
2022/11/21 12:55:26;;;;;;;30.27;19.45;;;;;;;;;;4994251;28;20461;-67
2022/11/21 12:57:52;;;;;;;30.05;19.48;;;;;;;;;;4984782;28;20137;-59
2022/11/21 13:00:18;;;;;;;30.95;19.15;;;;;;;;;;4972846;28;20029;-59
2022/11/21 13:02:49;;;;;;;29.95;19.08;;;;;;;;;;4975963;28;20030;-66
2022/11/21 13:05:24;;;;;;;27.50;18.00;;;;;;;;;;4985740;28;20026;-67
2022/11/21 13:07:53;;;;;;;30.10;19.65;;;;;;;;;;4993879;28;20088;-65
2022/11/21 13:10:19;;;;;;;29.55;19.35;;;;;;;;;;4993871;28;20038;-63
2022/11/21 13:13:05;;;;;;;31.60;18.90;;;;;;;;;;4976345;28;20057;-69
2022/11/21 13:15:39;;;;;;;28.80;18.13;;;;;;;;;;4977349;28;20034;-60
2022/11/21 13:18:20;;;;;;;28.08;18.63;;;;;;;;;;4993803;28;20030;-68
2022/11/21 13:20:48;;;;;;;29.63;18.70;;;;;;;;;;4993907;28;20026;-63
2022/11/21 13:23:37;;;;;;;33.83;19.98;;;;;;;;;;4994030;28;20054;-61
2022/11/21 13:26:22;;;;;;;32.15;19.55;;;;;;;;;;4895716;29;20040;-60
2022/11/21 13:28:48;;;;;;;30.00;17.95;;;;;;;;;;4895582;29;20103;-60
2022/11/21 13:31:27;;;;;;;32.63;19.27;;;;;;;;;;4895247;29;20135;-60
2022/11/21 13:33:53;;;;;;;28.35;17.42;;;;;;;;;;4895665;29;20041;-68
2022/11/21 13:36:28;;;;;;;24.00;14.50;;;;;;;;;;4895258;29;20107;-61
2022/11/21 13:38:54;;;;;;;23.08;14.10;;;;;;;;;;4895556;29;20036;-68
2022/11/21 13:44:31;;;;;;;25.55;15.57;;;;;;;;;;4895379;29;20638;-65
2022/11/21 13:47:01;;;;;;;24.63;14.90;;;;;;;;;;4895502;29;20036;-69
2022/11/21 13:49:32;;;;;;;24.38;15.55;;;;;;;;;;4895333;29;20052;-65
2022/11/21 13:52:01;;;;;;;28.20;17.27;;;;;;;;;;4894848;29;20040;-59
2022/11/21 13:54:30;;;;;;;26.58;16.48;;;;;;;;;;4894562;29;20055;-67
2022/11/21 13:57:14;;;;;;;31.45;17.45;;;;;;;;;;4894870;29;20424;-67
2022/11/21 13:59:43;;;;;;;27.88;16.98;;;;;;;;;;4894287;29;20079;-60
2022/11/21 14:02:25;;;;;;;28.63;16.52;;;;;;;;;;4902853;28;20080;-63
2022/11/21 14:04:57;;;;;;;31.25;17.60;;;;;;;;;;4990151;28;20037;-64
2022/11/21 14:07:29;;;;;;;26.67;16.80;;;;;;;;;;4994829;28;20034;-68
2022/11/21 14:09:56;;;;;;;25.90;15.95;;;;;;;;;;4975248;28;20030;-64
2022/11/21 14:12:28;;;;;;;24.70;14.70;;;;;;;;;;4992484;28;20050;-66
2022/11/21 14:15:11;;;;;;;25.13;15.23;;;;;;;;;;4992756;28;20125;-66
2022/11/21 14:17:37;;;;;;;;;;;;;;;;;;4993267;28;20100;-60
2022/11/21 14:20:32;;;;;;;26.27;14.70;;;;;;;;;;4992852;28;19912;-65
2022/11/21 14:23:03;;;;;;;27.70;15.48;;;;;;;;;;4965155;28;20389;-67
2022/11/21 14:25:47;;;;;;;26.63;14.68;;;;;;;;;;4993109;28;20034;-66
2022/11/21 14:28:15;;;;;;;24.50;14.68;;;;;;;;;;4992690;28;20033;-62
2022/11/21 14:30:42;;;;;;;26.83;15.73;;;;;;;;;;4991712;28;20022;-62
2022/11/21 14:33:21;;;;;;;28.60;16.27;;;;;;;;;;4987809;28;20038;-66
2022/11/21 14:35:48;;;;;;;27.42;17.10;;;;;;;;;;4983729;28;20029;-64
2022/11/21 14:38:14;;;;;;;30.55;17.10;;;;;;;;;;4972445;28;20038;-62
2022/11/21 14:40:40;;;;;;;27.20;16.05;;;;;;;;;;4973274;28;20480;-62
2022/11/21 14:43:27;;;;;;;24.75;15.65;;;;;;;;;;4972646;28;20041;-61
2022/11/21 14:45:53;;;;;;;28.73;15.82;;;;;;;;;;4973423;28;20407;-63
2022/11/21 14:48:25;;;;;;;30.40;16.10;;;;;;;;;;4982364;28;20030;-60
2022/11/21 14:50:51;;;;;;;29.85;16.88;;;;;;;;;;4989090;28;20049;-66
2022/11/21 14:53:17;;;;;;;28.45;16.55;;;;;;;;;;4991077;28;20042;-66
2022/11/21 14:55:49;;;;;;;29.77;17.15;;;;;;;;;;4992295;28;20047;-65
2022/11/21 14:58:16;;;;;;;26.52;16.13;;;;;;;;;;4992199;28;20026;-63
2022/11/21 15:01:00;;;;;;;28.35;17.75;;;;;;;;;;4992303;28;20026;-62
2022/11/21 15:03:26;;;;;;;28.35;17.25;;;;;;;;;;4992311;28;20493;-58
2022/11/21 15:06:05;;;;;;;29.58;18.30;;;;;;;;;;4983873;28;20386;-65
2022/11/21 15:08:32;;;;;;;30.38;17.92;;;;;;;;;;4983192;28;20109;-59
2022/11/21 15:10:59;;;;;;;29.55;18.40;;;;;;;;;;4992692;28;20026;-69
2022/11/21 15:13:29;;;;;;;26.90;17.73;;;;;;;;;;4962896;28;20050;-67
2022/11/21 15:15:56;;;;;;;31.23;18.02;;;;;;;;;;4964841;28;20031;-66
2022/11/21 15:18:27;;;;;;;30.58;18.67;;;;;;;;;;4971451;28;20041;-68
2022/11/21 15:20:54;;;;;;;32.50;18.27;;;;;;;;;;4959927;28;20019;-66
2022/11/21 15:23:35;;;;;;;29.30;17.30;;;;;;;;;;4969342;28;20049;-66
2022/11/21 15:26:01;;;;;;;29.45;17.75;;;;;;;;;;4985993;28;20049;-63
2022/11/21 15:28:28;;;;;;;33.10;17.83;;;;;;;;;;4972538;28;20489;-68
2022/11/21 15:31:13;;;;;;;30.00;18.50;;;;;;;;;;4991657;28;20026;-64
2022/11/21 15:33:57;;;;;;;29.33;19.13;;;;;;;;;;4992058;28;20061;-64
2022/11/21 15:36:23;;;;;;;28.98;18.27;;;;;;;;;;4992002;28;20026;-68
2022/11/21 15:38:59;;;;;;;29.88;18.30;;;;;;;;;;4974052;28;20437;-68
2022/11/21 15:41:26;;;;;;;30.45;18.67;;;;;;;;;;4991417;28;20176;-62
2022/11/21 15:44:01;;;;;;;29.60;18.98;;;;;;;;;;4991758;28;20484;-67
2022/11/21 15:46:29;;;;;;;27.30;17.75;;;;;;;;;;4973746;28;20060;-60
2022/11/21 15:48:55;;;;;;;34.15;19.23;;;;;;;;;;4991676;28;20049;-61
2022/11/21 15:51:22;;;;;;;33.08;19.15;;;;;;;;;;4991405;28;20019;-60
2022/11/21 15:53:48;;;;;;;28.63;18.23;;;;;;;;;;4991511;28;20049;-65
2022/11/21 15:56:15;;;;;;;30.17;18.67;;;;;;;;;;4991593;28;20175;-63
2022/11/21 15:58:42;;;;;;;33.17;19.65;;;;;;;;;;4991066;28;20073;-65
2022/11/21 16:01:13;;;;;;;31.08;18.52;;;;;;;;;;4991199;28;20086;-61
2022/11/21 16:03:39;;;;;;;30.38;18.45;;;;;;;;;;4991078;28;20474;-61
2022/11/21 16:06:05;;;;;;;29.02;19.25;;;;;;;;;;4990658;28;20402;-63
2022/11/21 16:08:31;;;;;;;30.75;19.13;;;;;;;;;;4990891;28;20104;-60
2022/11/21 16:10:57;;;;;;;30.95;18.73;;;;;;;;;;4990582;28;20029;-61
2022/11/21 16:13:23;;;;;;;33.60;19.13;;;;;;;;;;4990994;28;20072;-67
2022/11/21 16:15:49;;;;;;;30.63;19.10;;;;;;;;;;4990137;28;20062;-65
2022/11/21 16:18:15;;;;;;;28.00;18.83;;;;;;;;;;4977442;28;20712;-60
2022/11/21 16:20:41;;;;;;;31.60;19.55;;;;;;;;;;4970234;28;20015;-67
2022/11/21 16:23:08;;;;;;;31.67;18.98;;;;;;;;;;4975847;28;20152;-63
2022/11/21 16:25:34;;;;;;;30.75;18.85;;;;;;;;;;4969497;28;20067;-61
2022/11/21 16:28:00;;;;;;;31.77;19.25;;;;;;;;;;4974737;28;20031;-67
2022/11/21 16:30:27;;;;;;;30.63;18.80;;;;;;;;;;4973952;28;20504;-65
2022/11/21 16:32:55;;;;;;;31.75;18.88;;;;;;;;;;4963958;28;20048;-63
2022/11/21 16:35:21;;;;;;;32.78;20.15;;;;;;;;;;4971848;28;20031;-61
2022/11/21 16:37:48;;;;;;;31.05;18.45;;;;;;;;;;4966231;28;20134;-67
2022/11/21 16:40:14;;;;;;;31.30;18.52;;;;;;;;;;4974760;28;20034;-62
2022/11/21 16:42:40;;;;;;;31.88;18.75;;;;;;;;;;4969698;28;20035;-64
2022/11/21 16:45:07;;;;;;;30.02;18.20;;;;;;;;;;4981516;28;20042;-66
2022/11/21 16:47:35;;;;;;;29.08;18.55;;;;;;;;;;4957676;28;20529;-66
2022/11/21 16:50:01;;;;;;;34.08;19.00;;;;;;;;;;4971331;28;20443;-63
2022/11/21 16:52:27;;;;;;;31.85;18.98;;;;;;;;;;4971190;28;20434;-67
2022/11/21 16:54:53;;;;;;;32.13;20.00;;;;;;;;;;4971097;28;20106;-65
2022/11/21 16:57:19;;;;;;;32.15;18.88;;;;;;;;;;4973485;28;20045;-61
2022/11/21 16:59:45;;;;;;;32.03;18.63;;;;;;;;;;4970947;28;20027;-64
2022/11/21 17:02:11;;;;;;;29.15;18.10;;;;;;;;;;4978992;28;20030;-62
2022/11/21 17:04:37;;;;;;;28.52;18.20;;;;;;;;;;4957844;28;20159;-62
2022/11/21 17:07:03;;;;;;;30.40;18.05;;;;;;;;;;4980217;28;20031;-65
2022/11/21 17:09:29;;;;;;;31.23;17.33;;;;;;;;;;4973297;28;20032;-68
2022/11/21 17:11:58;;;;;;;27.20;17.30;;;;;;;;;;4982233;28;20094;-66
2022/11/21 17:14:25;;;;;;;27.58;17.42;;;;;;;;;;4990546;28;20046;-67
2022/11/21 17:16:51;;;;;;;29.52;16.98;;;;;;;;;;4993144;28;20029;-66
2022/11/21 17:19:17;;;;;;;26.92;16.77;;;;;;;;;;4983600;28;20042;-61
2022/11/21 17:21:44;;;;;;;27.30;16.83;;;;;;;;;;4973234;28;20031;-61
2022/11/21 17:24:11;;;;;;;26.90;16.30;;;;;;;;;;4980305;28;20023;-66
2022/11/21 17:26:37;;;;;;;27.90;15.68;;;;;;;;;;4992543;28;20105;-66
2022/11/21 17:29:04;;;;;;;23.65;15.55;;;;;;;;;;4978423;28;20023;-66
2022/11/21 17:31:30;;;;;;;26.40;16.35;;;;;;;;;;4974496;28;20027;-66
2022/11/21 17:33:57;;;;;;;26.45;15.75;;;;;;;;;;4974624;28;20058;-66
2022/11/21 17:36:24;;;;;;;24.52;15.85;;;;;;;;;;4973032;28;20879;-69
2022/11/21 17:38:50;;;;;;;25.98;16.35;;;;;;;;;;4974856;28;20115;-63
2022/11/21 17:41:17;;;;;;;25.45;15.70;;;;;;;;;;4967906;28;20073;-60
2022/11/21 17:43:43;;;;;;;25.17;15.77;;;;;;;;;;4976200;28;20054;-65
2022/11/21 17:46:11;;;;;;;27.83;16.42;;;;;;;;;;4973091;28;20034;-63
2022/11/21 17:48:38;;;;;;;28.58;16.70;;;;;;;;;;4975366;28;20510;-65
2022/11/21 17:51:05;;;;;;;27.73;16.92;;;;;;;;;;4970572;28;20034;-67
2022/11/21 17:53:32;;;;;;;30.45;17.88;;;;;;;;;;4969230;28;20086;-60
2022/11/21 17:55:59;;;;;;;28.38;17.02;;;;;;;;;;4980615;28;20126;-61
2022/11/21 17:58:26;;;;;;;27.85;16.73;;;;;;;;;;4980061;28;20042;-62
2022/11/21 18:00:58;;;;;;;25.95;16.50;;;;;;;;;;4993274;28;20139;-63
2022/11/21 18:03:25;;;;;;;29.30;17.73;;;;;;;;;;4989345;28;20031;-67
2022/11/21 18:06:01;;;;;;;28.95;16.88;;;;;;;;;;4992836;28;20022;-63
2022/11/21 18:08:29;;;;;;;30.27;17.95;;;;;;;;;;4991118;28;20271;-60
2022/11/21 18:10:55;;;;;;;28.60;16.50;;;;;;;;;;4977858;28;20019;-67
2022/11/21 18:13:21;;;;;;;26.90;16.73;;;;;;;;;;4992908;28;20038;-65
2022/11/21 18:15:47;;;;;;;30.27;17.48;;;;;;;;;;4995410;28;20035;-59
2022/11/21 18:18:13;;;;;;;30.83;17.20;;;;;;;;;;4981003;28;20022;-61
2022/11/21 18:20:39;;;;;;;30.52;17.77;;;;;;;;;;4977103;28;20022;-67
2022/11/21 18:23:05;;;;;;;31.10;17.65;;;;;;;;;;4991786;28;20033;-65
2022/11/21 18:25:34;;;;;;;35.63;19.40;;;;;;;;;;4991726;28;20026;-67
2022/11/21 18:28:00;;;;;;;37.33;21.95;;;;;;;;;;4980809;28;20394;-61
2022/11/21 18:30:26;;;;;;;37.00;22.58;;;;;;;;;;4971249;28;20050;-62
2022/11/21 18:32:52;;;;;;;38.20;23.20;;;;;;;;;;4969276;28;20087;-66
2022/11/21 18:35:18;;;;;;;36.67;23.00;;;;;;;;;;4984686;28;20066;-68
2022/11/21 18:37:44;;;;;;;42.13;22.65;;;;;;;;;;4969324;28;20363;-68
2022/11/21 18:40:11;;;;;;;40.55;21.80;;;;;;;;;;4982959;28;20522;-67
2022/11/21 18:42:37;;;;;;;39.78;23.13;;;;;;;;;;4991282;28;20035;-60
2022/11/21 18:45:03;;;;;;;41.10;23.05;;;;;;;;;;4992170;28;20093;-60
2022/11/21 18:47:29;;;;;;;41.80;24.23;;;;;;;;;;4990146;28;20031;-68
2022/11/21 18:49:55;;;;;;;42.70;25.83;;;;;;;;;;4992266;28;20552;-67
2022/11/21 18:52:21;;;;;;;45.63;26.58;;;;;;;;;;4991929;28;20034;-63
2022/11/21 18:54:47;;;;;;;43.70;26.00;;;;;;;;;;4991845;28;20512;-60
2022/11/21 18:57:13;;;;;;;46.38;27.15;;;;;;;;;;4986337;28;20446;-64
2022/11/21 18:59:39;;;;;;;57.03;32.28;;;;;;;;;;4974772;28;20023;-66
2022/11/21 19:02:06;;;;;;;53.25;31.02;;;;;;;;;;4972115;28;20105;-63
2022/11/21 19:04:32;;;;;;;57.28;32.03;;;;;;;;;;4984384;28;20510;-64
2022/11/21 19:06:58;;;;;;;60.33;32.70;;;;;;;;;;4980852;28;20114;-67
2022/11/21 19:09:24;;;;;;;61.30;32.60;;;;;;;;;;4971937;28;20058;-66
2022/11/21 19:11:51;;;;;;;66.30;34.45;;;;;;;;;;4972512;28;20111;-64
2022/11/21 19:14:17;;;;;;;67.85;33.88;;;;;;;;;;4972298;28;20031;-64
2022/11/21 19:16:43;;;;;;;59.45;31.25;;;;;;;;;;4972531;28;20050;-64
2022/11/21 19:19:11;;;;;;;63.17;33.58;;;;;;;;;;4982325;28;20076;-65
2022/11/21 19:21:38;;;;;;;58.88;31.45;;;;;;;;;;4987035;28;20121;-68
2022/11/21 19:24:05;;;;;;;57.58;32.00;;;;;;;;;;4977579;28;20027;-68
2022/11/21 19:26:31;;;;;;;58.85;30.83;;;;;;;;;;4973691;28;20030;-67
2022/11/21 19:28:58;;;;;;;57.60;31.38;;;;;;;;;;4971499;28;20478;-61
2022/11/21 19:31:24;;;;;;;58.47;32.20;;;;;;;;;;4972429;28;20122;-67
2022/11/21 19:33:50;;;;;;;56.08;30.27;;;;;;;;;;4972464;28;20176;-66
2022/11/21 19:36:17;;;;;;;55.35;29.20;;;;;;;;;;4972562;28;20037;-63
2022/11/21 19:38:44;;;;;;;52.60;29.02;;;;;;;;;;4984763;28;20113;-62
2022/11/21 19:41:15;;;;;;;53.17;29.77;;;;;;;;;;5002081;28;20496;-70
2022/11/21 19:43:41;;;;;;;54.38;28.83;;;;;;;;;;5010759;28;20030;-65
2022/11/21 19:46:07;;;;;;;52.03;29.63;;;;;;;;;;5011454;28;20679;-70
2022/11/21 19:48:33;;;;;;;56.83;30.55;;;;;;;;;;5011210;28;20077;-66
2022/11/21 19:51:00;;;;;;;57.53;31.80;;;;;;;;;;5011309;28;20045;-70
2022/11/21 19:53:27;;;;;;;58.50;32.05;;;;;;;;;;5010955;28;20050;-62
2022/11/21 19:55:53;;;;;;;59.15;31.30;;;;;;;;;;5010923;28;20445;-66
2022/11/21 19:58:20;;;;;;;51.42;29.00;;;;;;;;;;5010923;28;20029;-64
2022/11/21 20:00:46;;;;;;;51.65;28.92;;;;;;;;;;5010472;28;20033;-66
2022/11/21 20:03:12;;;;;;;53.63;29.75;;;;;;;;;;4994847;28;20034;-63
2022/11/21 20:05:38;;;;;;;59.10;31.42;;;;;;;;;;4990798;28;20556;-64
2022/11/21 20:08:04;;;;;;;55.25;31.25;;;;;;;;;;4988832;28;20062;-61
2022/11/21 20:10:32;;;;;;;54.38;31.33;;;;;;;;;;4991287;28;20027;-65
2022/11/21 20:12:59;;;;;;;54.55;31.13;;;;;;;;;;4990952;28;20037;-60
2022/11/21 20:15:25;;;;;;;53.42;30.80;;;;;;;;;;4990625;28;20030;-63
2022/11/21 20:17:51;;;;;;;50.20;29.65;;;;;;;;;;4991093;28;20026;-63
2022/11/21 20:20:17;;;;;;;52.92;28.73;;;;;;;;;;4991377;28;20359;-61
2022/11/21 20:22:44;;;;;;;51.53;28.42;;;;;;;;;;4991144;28;20026;-66
2022/11/21 20:25:10;;;;;;;46.38;26.48;;;;;;;;;;4990082;28;20037;-68
2022/11/21 20:27:36;;;;;;;53.03;29.75;;;;;;;;;;4973182;28;20039;-63
2022/11/21 20:30:02;;;;;;;53.55;29.98;;;;;;;;;;4971083;28;20101;-64
2022/11/21 20:32:28;;;;;;;51.95;28.52;;;;;;;;;;4971460;28;20035;-64
2022/11/21 20:34:54;;;;;;;49.10;27.83;;;;;;;;;;4971698;28;20105;-65
2022/11/21 20:37:20;;;;;;;48.13;27.63;;;;;;;;;;4969813;28;20434;-61
2022/11/21 20:39:46;;;;;;;51.95;26.30;;;;;;;;;;4970233;28;20054;-66
2022/11/21 20:42:13;;;;;;;48.88;26.77;;;;;;;;;;4968275;28;20035;-63
2022/11/21 20:44:39;;;;;;;63.83;31.42;;;;;;;;;;4969849;28;20023;-63
2022/11/21 20:47:06;;;;;;;47.17;25.38;;;;;;;;;;4971010;28;20069;-65
2022/11/21 20:49:32;;;;;;;50.67;27.75;;;;;;;;;;4971326;28;20078;-65
2022/11/21 20:51:58;;;;;;;59.78;30.20;;;;;;;;;;4957480;28;20465;-64